Time;durP1;ratioP1;P1;durP2;ratioP2;P2;SDS_P1;SDS_P2;PMS_P1;PMS_P2;Temp;Humidity;BMP_temperature;BMP_pressure;BME280_temperature;BME280_humidity;BME280_pressure;Samples;Min_cycle;Max_cycle;Signal;HPM_P1;HPM_P2
2023/10/16 00:01:03;;;;;;;30.07;27.77;;;7.20;93.10;;;;;;5035277;28;20199;-92
2023/10/16 00:03:09;;;;;;;14.83;13.47;;;7.20;93.20;;;;;;5047588;28;20219;-90
2023/10/16 00:05:45;;;;;;;16.23;14.87;;;7.10;93.30;;;;;;5044684;28;20185;-94
2023/10/16 00:08:16;;;;;;;27.97;25.60;;;7.10;93.40;;;;;;5059203;28;20153;-93
2023/10/16 00:11:05;;;;;;;27.73;25.73;;;7.10;93.50;;;;;;5053791;28;20177;-92
2023/10/16 00:13:34;;;;;;;16.77;15.43;;;7.10;93.50;;;;;;5056205;28;20177;-93
2023/10/16 00:16:02;;;;;;;17.03;14.20;;;7.20;93.50;;;;;;5054920;28;20181;-93
2023/10/16 00:18:33;;;;;;;27.87;25.67;;;7.20;93.60;;;;;;5054990;28;20156;-94
2023/10/16 00:21:04;;;;;;;30.73;28.40;;;7.20;93.60;;;;;;5057937;28;20181;-94
2023/10/16 00:23:30;;;;;;;30.80;28.43;;;7.20;93.70;;;;;;5058347;28;20216;-93
2023/10/16 00:25:58;;;;;;;18.63;17.20;;;7.20;93.80;;;;;;5058306;28;20185;-94
2023/10/16 00:28:24;;;;;;;18.07;16.70;;;7.30;93.80;;;;;;5057017;28;20179;-93
2023/10/16 00:30:51;;;;;;;19.17;17.57;;;7.20;93.80;;;;;;5055832;28;20176;-94
2023/10/16 00:33:17;;;;;;;18.87;17.20;;;7.30;93.80;;;;;;5056199;28;20157;-94
2023/10/16 00:35:45;;;;;;;18.57;16.70;;;7.20;93.80;;;;;;5055592;28;20205;-93
2023/10/16 00:38:14;;;;;;;18.10;16.67;;;7.20;93.80;;;;;;5055764;28;20188;-94
2023/10/16 00:41:16;;;;;;;18.63;17.33;;;7.20;93.70;;;;;;5053905;28;20164;-93
2023/10/16 00:43:32;;;;;;;20.17;18.57;;;7.10;93.70;;;;;;5054831;28;20224;-94
2023/10/16 00:46:06;;;;;;;17.93;16.50;;;7.00;93.60;;;;;;5051621;28;20215;-92
2023/10/16 00:48:34;;;;;;;18.20;16.63;;;7.00;93.60;;;;;;5047226;28;20199;-94
2023/10/16 00:51:06;;;;;;;18.27;16.50;;;7.00;93.60;;;;;;5042033;28;20188;-93
2023/10/16 00:53:32;;;;;;;18.90;17.37;;;7.00;93.60;;;;;;5044656;28;20173;-93
2023/10/16 00:55:58;;;;;;;18.43;16.90;;;6.90;93.70;;;;;;5043168;28;20189;-93
2023/10/16 00:58:25;;;;;;;20.77;17.63;;;6.90;93.70;;;;;;5040756;28;20256;-93
2023/10/16 01:00:50;;;;;;;18.10;16.43;;;6.80;93.60;;;;;;5043081;28;20176;-93
2023/10/16 01:03:16;;;;;;;18.87;17.50;;;6.80;93.70;;;;;;5042688;28;20671;-93
2023/10/16 01:05:42;;;;;;;18.23;17.00;;;6.80;93.80;;;;;;5047799;28;20200;-92
2023/10/16 01:08:10;;;;;;;19.37;17.97;;;6.80;93.90;;;;;;5049573;28;20172;-93
2023/10/16 01:10:43;;;;;;;19.27;17.73;;;6.80;93.90;;;;;;5050204;28;20187;-92
2023/10/16 01:13:12;;;;;;;18.90;17.63;;;6.80;93.90;;;;;;5053170;28;20219;-93
2023/10/16 01:15:43;;;;;;;19.87;17.70;;;6.80;94.00;;;;;;5049008;28;20196;-92
2023/10/16 01:18:11;;;;;;;31.83;29.53;;;6.80;94.10;;;;;;5053407;28;20153;-93
2023/10/16 01:20:38;;;;;;;33.70;30.70;;;6.80;94.10;;;;;;5049486;28;20177;-92
2023/10/16 01:23:07;;;;;;;31.90;29.27;;;6.80;94.10;;;;;;5049548;28;20218;-93
2023/10/16 01:25:32;;;;;;;32.93;30.47;;;6.80;94.10;;;;;;5048305;28;20283;-92
2023/10/16 01:27:58;;;;;;;32.63;30.20;;;6.80;94.20;;;;;;5047110;28;20234;-92
2023/10/16 01:30:23;;;;;;;33.17;30.10;;;6.80;94.20;;;;;;5046724;28;20180;-92
2023/10/16 01:32:49;;;;;;;31.47;29.07;;;6.70;94.20;;;;;;5044697;28;20181;-92
2023/10/16 01:35:18;;;;;;;32.67;30.00;;;6.70;94.20;;;;;;5044231;28;20207;-92
2023/10/16 01:37:46;;;;;;;32.10;29.50;;;6.70;94.20;;;;;;5047470;28;20185;-93
2023/10/16 01:40:25;;;;;;;31.63;29.40;;;6.70;94.20;;;;;;5044345;28;20181;-92
2023/10/16 01:42:54;;;;;;;32.10;29.57;;;6.70;94.20;;;;;;5046036;28;20212;-92
2023/10/16 01:45:20;;;;;;;31.93;29.57;;;6.70;94.20;;;;;;5046332;28;20220;-92
2023/10/16 01:47:47;;;;;;;31.73;29.37;;;6.70;94.10;;;;;;5044481;28;20196;-92
2023/10/16 01:50:21;;;;;;;31.93;29.97;;;6.60;94.10;;;;;;5044951;28;20260;-92
2023/10/16 01:52:47;;;;;;;18.37;16.77;;;6.70;94.20;;;;;;5044956;28;20180;-93
2023/10/16 01:55:16;;;;;;;18.90;16.93;;;6.70;94.20;;;;;;5044658;28;20680;-93
2023/10/16 01:57:44;;;;;;;17.60;16.50;;;6.70;94.20;;;;;;5046545;28;20252;-93
2023/10/16 02:00:18;;;;;;;31.40;29.10;;;6.70;94.20;;;;;;5044919;28;20203;-94
2023/10/16 02:02:45;;;;;;;32.33;29.57;;;6.80;94.20;;;;;;5045376;28;20705;-93
2023/10/16 02:05:14;;;;;;;19.00;17.27;;;6.80;94.20;;;;;;5043846;28;20193;-93
2023/10/16 02:07:43;;;;;;;18.73;17.13;;;6.80;94.20;;;;;;5045393;28;20203;-93
2023/10/16 02:10:12;;;;;;;29.80;28.00;;;6.70;94.20;;;;;;5047819;28;20172;-93
2023/10/16 02:12:39;;;;;;;32.10;30.00;;;6.70;94.20;;;;;;5046518;28;20184;-93
2023/10/16 02:15:07;;;;;;;35.63;32.93;;;6.80;94.30;;;;;;5054805;28;20191;-93
2023/10/16 02:17:33;;;;;;;19.30;17.50;;;6.80;94.30;;;;;;5057338;28;20165;-92
2023/10/16 02:19:58;;;;;;;21.13;18.43;;;6.80;94.30;;;;;;5060186;28;20179;-93
2023/10/16 02:22:24;;;;;;;21.00;19.10;;;6.70;94.30;;;;;;5057968;28;20193;-93
2023/10/16 02:24:50;;;;;;;20.43;18.67;;;6.70;94.40;;;;;;5057177;28;20197;-92
2023/10/16 02:27:18;;;;;;;20.50;18.50;;;6.70;94.30;;;;;;5055302;28;20196;-92
2023/10/16 02:29:52;;;;;;;20.20;18.37;;;6.70;94.40;;;;;;5054115;28;20181;-93
2023/10/16 02:32:17;;;;;;;21.87;19.87;;;6.60;94.40;;;;;;5056639;28;20168;-93
2023/10/16 02:34:43;;;;;;;20.77;19.10;;;6.70;94.40;;;;;;5054026;28;20200;-92
2023/10/16 02:37:11;;;;;;;21.23;19.17;;;6.60;94.40;;;;;;5050515;28;20181;-93
2023/10/16 02:39:37;;;;;;;21.30;19.50;;;6.70;94.40;;;;;;5045191;28;20169;-92
2023/10/16 02:42:08;;;;;;;22.30;20.10;;;6.70;94.40;;;;;;5044977;28;20679;-93
2023/10/16 02:44:38;;;;;;;20.37;18.97;;;6.70;94.50;;;;;;5044607;28;20201;-92
2023/10/16 02:47:06;;;;;;;22.67;20.70;;;6.70;94.50;;;;;;5044170;28;20196;-93
2023/10/16 02:49:33;;;;;;;21.87;19.77;;;6.70;94.50;;;;;;5041389;28;20180;-92
2023/10/16 02:51:59;;;;;;;22.97;21.07;;;6.70;94.50;;;;;;5039999;28;20267;-93
2023/10/16 02:54:24;;;;;;;23.73;21.30;;;6.60;94.50;;;;;;5039735;28;20637;-92
2023/10/16 02:56:54;;;;;;;30.03;21.23;;;6.60;94.50;;;;;;5041325;28;20183;-92
2023/10/16 02:59:19;;;;;;;21.50;19.60;;;6.60;94.60;;;;;;5043010;28;20199;-92
2023/10/16 03:01:46;;;;;;;22.70;20.60;;;6.70;94.60;;;;;;5041103;28;20700;-92
2023/10/16 03:04:15;;;;;;;23.43;21.30;;;6.70;94.60;;;;;;5043652;28;20179;-92
2023/10/16 03:06:41;;;;;;;36.67;33.70;;;6.70;94.70;;;;;;5042417;28;20177;-92
2023/10/16 03:09:25;;;;;;;35.93;32.67;;;6.70;94.70;;;;;;5044424;28;20263;-93
2023/10/16 03:12:07;;;;;;;34.40;31.73;;;6.70;94.60;;;;;;5042940;28;20191;-92
2023/10/16 03:14:46;;;;;;;36.67;33.70;;;6.70;94.60;;;;;;5041594;28;20249;-94
2023/10/16 03:17:25;;;;;;;36.73;34.10;;;6.70;94.60;;;;;;5043034;28;20240;-93
2023/10/16 03:19:55;;;;;;;36.53;34.07;;;6.70;94.60;;;;;;5042804;28;20164;-92
2023/10/16 03:22:21;;;;;;;38.80;36.10;;;6.70;94.70;;;;;;5040009;28;20204;-92
2023/10/16 03:24:47;;;;;;;38.30;34.90;;;6.70;94.70;;;;;;5040013;28;20200;-92
2023/10/16 03:27:27;;;;;;;37.23;34.43;;;6.70;94.70;;;;;;5039736;28;20241;-93
2023/10/16 03:29:54;;;;;;;39.53;36.47;;;6.80;94.70;;;;;;5040977;28;20517;-93
2023/10/16 03:32:20;;;;;;;38.80;35.97;;;6.80;94.70;;;;;;5042005;28;20208;-92
2023/10/16 03:34:45;;;;;;;40.63;37.43;;;6.80;94.70;;;;;;5042577;28;20207;-93
2023/10/16 03:37:13;;;;;;;40.13;36.77;;;6.90;94.70;;;;;;5042790;28;20188;-92
2023/10/16 03:39:39;;;;;;;44.17;41.17;;;6.90;94.80;;;;;;5042039;28;20181;-92
2023/10/16 03:42:09;;;;;;;25.73;23.73;;;6.90;94.80;;;;;;5042994;28;20204;-93
2023/10/16 03:44:37;;;;;;;25.80;23.57;;;7.00;94.80;;;;;;5042627;28;20204;-92
2023/10/16 03:47:05;;;;;;;26.30;23.73;;;7.00;94.70;;;;;;5039366;28;20279;-93
2023/10/16 03:49:31;;;;;;;37.73;34.80;;;6.90;94.70;;;;;;5040383;28;20176;-92
2023/10/16 03:51:57;;;;;;;38.70;35.83;;;7.00;94.70;;;;;;5042209;28;20173;-92
2023/10/16 03:54:35;;;;;;;24.13;21.90;;;7.00;94.70;;;;;;5039779;28;20196;-93
2023/10/16 03:57:01;;;;;;;23.50;21.57;;;7.00;94.80;;;;;;5040450;28;20211;-93
2023/10/16 03:59:29;;;;;;;25.17;23.07;;;7.00;94.80;;;;;;5044683;28;20188;-93
2023/10/16 04:02:00;;;;;;;25.97;23.83;;;7.10;94.80;;;;;;5047693;28;20205;-93
2023/10/16 04:04:26;;;;;;;23.93;21.83;;;7.20;94.80;;;;;;5048661;28;20199;-93
2023/10/16 04:06:56;;;;;;;22.83;20.97;;;7.20;94.90;;;;;;5049219;28;20168;-94
2023/10/16 04:09:33;;;;;;;24.37;21.90;;;7.30;95.00;;;;;;5046082;28;20252;-93
2023/10/16 04:12:02;;;;;;;26.03;24.03;;;7.30;95.00;;;;;;5047250;28;20164;-92
2023/10/16 04:14:44;;;;;;;26.43;24.13;;;7.30;95.00;;;;;;5046275;28;20288;-94
2023/10/16 04:17:11;;;;;;;27.10;24.67;;;7.30;95.00;;;;;;5049716;28;20192;-90
2023/10/16 04:19:52;;;;;;;27.97;25.33;;;7.30;95.10;;;;;;5048828;28;20246;-93
2023/10/16 04:22:18;;;;;;;27.60;25.30;;;7.30;95.10;;;;;;5048810;28;20184;-93
2023/10/16 04:24:47;;;;;;;27.00;24.73;;;7.30;95.10;;;;;;5051962;28;20254;-93
2023/10/16 04:30:32;;;;;;;26.67;24.50;;;7.30;95.10;;;;;;5049546;28;20173;-94
2023/10/16 04:35:51;;;;;;;28.47;25.40;;;7.30;95.10;;;;;;5049454;28;20211;-92
2023/10/16 04:38:27;;;;;;;29.87;27.30;;;7.30;95.10;;;;;;5047687;28;20235;-93
2023/10/16 04:44:21;;;;;;;29.97;27.47;;;7.30;95.20;;;;;;5047533;28;20602;-93
2023/10/16 04:49:19;;;;;;;44.83;41.43;;;7.40;95.20;;;;;;5044344;28;20187;-92
2023/10/16 04:52:01;;;;;;;43.17;40.00;;;7.40;95.20;;;;;;5045441;28;20181;-93
2023/10/16 04:54:45;;;;;;;43.93;40.43;;;7.40;95.20;;;;;;5056775;28;20192;-94
2023/10/16 05:00:12;;;;;;;45.03;41.47;;;7.50;95.20;;;;;;5058958;28;20155;-95
2023/10/16 05:02:41;;;;;;;44.70;41.37;;;7.40;95.20;;;;;;5058379;28;20227;-95
2023/10/16 05:08:13;;;;;;;41.63;38.20;;;7.40;95.30;;;;;;5058458;28;20176;-93
2023/10/16 05:10:51;;;;;;;43.43;40.03;;;7.40;95.30;;;;;;5057726;28;20157;-94
2023/10/16 05:13:22;;;;;;;41.07;38.13;;;7.40;95.30;;;;;;5057702;28;20149;-93
2023/10/16 05:18:47;;;;;;;47.63;44.20;;;7.30;95.30;;;;;;5055771;28;20168;-93
2023/10/16 06:16:00;;;;;;;37.93;34.90;;;7.70;95.60;;;;;;5051984;28;20236;-92
2023/10/16 06:18:30;;;;;;;37.63;34.43;;;7.70;95.60;;;;;;5049300;28;20204;-93
2023/10/16 06:21:00;;;;;;;37.17;34.33;;;7.70;95.60;;;;;;5043573;28;20178;-93
2023/10/16 06:23:28;;;;;;;39.80;36.47;;;7.80;95.60;;;;;;5041323;28;20591;-93
2023/10/16 06:25:54;;;;;;;38.90;35.80;;;7.80;95.60;;;;;;5041638;28;20196;-92
2023/10/16 06:28:21;;;;;;;38.60;35.67;;;7.80;95.60;;;;;;5041324;28;20175;-93
2023/10/16 06:30:47;;;;;;;37.57;34.87;;;7.80;95.50;;;;;;5047098;28;20231;-92
2023/10/16 06:33:14;;;;;;;51.63;47.73;;;7.80;95.50;;;;;;5042499;28;20573;-92
2023/10/16 06:35:41;;;;;;;51.33;47.47;;;7.80;95.50;;;;;;5040457;28;20204;-92
2023/10/16 06:38:11;;;;;;;52.33;48.73;;;7.80;95.50;;;;;;5040714;28;20180;-92
2023/10/16 06:40:37;;;;;;;52.33;48.33;;;7.80;95.40;;;;;;5043318;28;20177;-93
2023/10/16 06:43:15;;;;;;;52.30;48.47;;;7.80;95.40;;;;;;5044826;28;20192;-93
2023/10/16 06:45:44;;;;;;;51.07;47.37;;;7.80;95.40;;;;;;5046965;28;20207;-94
2023/10/16 06:48:15;;;;;;;52.97;48.87;;;7.80;95.30;;;;;;5044362;28;20177;-93
2023/10/16 06:51:03;;;;;;;51.03;47.33;;;7.80;95.40;;;;;;5045374;28;20659;-93
2023/10/16 06:53:30;;;;;;;54.20;50.13;;;7.80;95.30;;;;;;5044018;28;20173;-93
2023/10/16 06:55:55;;;;;;;49.47;46.07;;;7.80;95.30;;;;;;5041382;28;20200;-93
2023/10/16 06:58:21;;;;;;;49.00;45.60;;;7.90;95.30;;;;;;5039464;28;20192;-93
2023/10/16 07:00:48;;;;;;;53.40;49.60;;;7.90;95.30;;;;;;5043524;28;20199;-94
2023/10/16 07:03:14;;;;;;;54.40;50.47;;;7.90;95.30;;;;;;5046496;28;20268;-93
2023/10/16 07:05:43;;;;;;;52.33;48.83;;;7.90;95.30;;;;;;5045279;28;20204;-93
2023/10/16 07:08:17;;;;;;;55.37;51.30;;;7.90;95.30;;;;;;5046943;28;20645;-92
2023/10/16 07:10:51;;;;;;;37.03;34.50;;;8.00;95.30;;;;;;5047504;28;20188;-93
2023/10/16 07:13:27;;;;;;;39.23;36.53;;;8.00;95.30;;;;;;5044204;28;20233;-93
2023/10/16 07:15:56;;;;;;;55.27;51.27;;;8.00;95.30;;;;;;5040350;28;20203;-92
2023/10/16 07:18:24;;;;;;;54.63;51.03;;;8.10;95.30;;;;;;5047212;28;20263;-92
2023/10/16 07:23:36;;;;;;;41.27;38.27;;;8.20;95.40;;;;;;5046409;28;20181;-93
2023/10/16 07:26:09;;;;;;;40.33;37.23;;;8.20;95.40;;;;;;5045944;28;20228;-92
2023/10/16 07:28:35;;;;;;;58.30;53.83;;;8.30;95.40;;;;;;5046744;28;20161;-94
2023/10/16 07:31:02;;;;;;;57.43;53.13;;;8.20;95.30;;;;;;5045426;28;20181;-93
2023/10/16 07:33:28;;;;;;;37.87;35.30;;;8.30;95.30;;;;;;5046954;28;20215;-93
2023/10/16 07:35:55;;;;;;;38.37;35.30;;;8.30;95.30;;;;;;5049347;28;20192;-93
2023/10/16 07:38:22;;;;;;;37.57;34.70;;;8.30;95.30;;;;;;5048082;28;20188;-93
2023/10/16 07:40:52;;;;;;;38.50;35.50;;;8.30;95.30;;;;;;5046831;28;20192;-93
2023/10/16 07:43:29;;;;;;;38.37;35.67;;;8.30;95.20;;;;;;5047437;28;20578;-92
2023/10/16 07:48:37;;;;;;;38.17;35.53;;;8.40;95.10;;;;;;5047009;28;20164;-93
2023/10/16 07:51:07;;;;;;;39.10;36.23;;;8.50;95.20;;;;;;5047604;28;20168;-93
2023/10/16 07:53:36;;;;;;;39.37;36.53;;;8.60;95.20;;;;;;5045584;28;20177;-92
2023/10/16 07:56:03;;;;;;;39.77;36.73;;;8.60;95.20;;;;;;5036939;28;20196;-91
2023/10/16 07:58:47;;;;;;;38.63;35.93;;;8.60;95.10;;;;;;5047573;28;20176;-93
2023/10/16 08:03:41;;;;;;;40.10;37.30;;;8.70;95.10;;;;;;5052004;28;20202;-91
2023/10/16 08:06:12;;;;;;;38.87;36.03;;;8.60;95.00;;;;;;5052832;28;20291;-93
2023/10/16 08:08:39;;;;;;;39.00;35.73;;;8.60;94.90;;;;;;5054227;28;20184;-93
2023/10/16 08:11:18;;;;;;;40.23;37.13;;;8.60;94.90;;;;;;5058101;28;20177;-94
2023/10/16 08:13:46;;;;;;;38.83;36.07;;;8.60;94.90;;;;;;5058444;28;20177;-93
2023/10/16 08:16:22;;;;;;;41.30;37.77;;;8.60;94.80;;;;;;5058780;28;20185;-94
2023/10/16 08:18:51;;;;;;;38.17;35.37;;;8.70;94.80;;;;;;5058333;28;20198;-94
2023/10/16 08:21:26;;;;;;;39.73;36.17;;;8.70;94.80;;;;;;5053356;28;20161;-92
2023/10/16 08:24:01;;;;;;;43.27;39.97;;;8.80;94.80;;;;;;5036648;28;20176;-92
2023/10/16 08:26:29;;;;;;;57.63;53.63;;;8.80;94.60;;;;;;5033943;28;20180;-92
2023/10/16 08:29:12;;;;;;;59.07;54.87;;;8.90;94.60;;;;;;5035147;28;20176;-91
2023/10/16 08:31:41;;;;;;;58.80;54.83;;;8.90;94.50;;;;;;5034327;28;20188;-91
2023/10/16 08:34:11;;;;;;;56.47;52.03;;;9.00;94.60;;;;;;5032315;28;20176;-91
2023/10/16 08:36:37;;;;;;;58.43;54.13;;;9.00;94.40;;;;;;5032978;28;20200;-90
2023/10/16 08:39:09;;;;;;;57.17;53.17;;;9.00;94.10;;;;;;5033513;28;20161;-91
2023/10/16 08:41:42;;;;;;;54.47;50.67;;;9.20;94.30;;;;;;5032767;28;20231;-92
2023/10/16 08:44:14;;;;;;;54.20;50.50;;;9.10;94.00;;;;;;5036169;28;20238;-92
2023/10/16 08:47:11;;;;;;;47.57;44.13;;;9.20;93.90;;;;;;5033768;28;20161;-91
2023/10/16 08:49:38;;;;;;;33.00;30.43;;;9.30;93.70;;;;;;5035716;28;20168;-92
2023/10/16 08:52:08;;;;;;;35.77;33.13;;;9.40;93.80;;;;;;5042400;28;20548;-92
2023/10/16 08:57:18;;;;;;;52.93;49.37;;;9.80;93.70;;;;;;5038579;28;20222;-93
2023/10/16 08:59:46;;;;;;;48.43;45.43;;;9.90;93.50;;;;;;5045434;28;20183;-93
2023/10/16 09:02:17;;;;;;;30.87;28.67;;;9.60;92.70;;;;;;5036432;28;20274;-90
2023/10/16 09:04:44;;;;;;;32.50;29.83;;;9.50;92.40;;;;;;5037059;28;20196;-92
2023/10/16 09:07:16;;;;;;;46.40;43.13;;;9.70;92.20;;;;;;5037604;28;20196;-92
2023/10/16 09:09:43;;;;;;;42.10;39.33;;;9.60;91.10;;;;;;5039826;28;20250;-94
2023/10/16 09:12:12;;;;;;;42.33;39.23;;;9.70;91.10;;;;;;5042473;28;20267;-93
2023/10/16 09:14:40;;;;;;;29.80;27.60;;;9.70;91.00;;;;;;5033495;28;20206;-92
2023/10/16 09:17:07;;;;;;;28.67;26.40;;;9.70;90.20;;;;;;5035486;28;20173;-93
2023/10/16 09:19:39;;;;;;;39.93;36.90;;;9.80;90.30;;;;;;5034156;28;20713;-93
2023/10/16 09:22:08;;;;;;;40.43;37.70;;;10.00;90.30;;;;;;5037106;28;20664;-93
2023/10/16 09:24:38;;;;;;;39.67;37.03;;;10.20;89.80;;;;;;5041368;28;20193;-92
2023/10/16 09:27:13;;;;;;;27.23;24.67;;;10.00;88.70;;;;;;5037294;28;20716;-91
2023/10/16 09:29:55;;;;;;;25.63;23.73;;;10.10;88.60;;;;;;5040209;28;20160;-92
2023/10/16 09:32:28;;;;;;;39.17;36.33;;;10.20;88.50;;;;;;5045480;28;20211;-92
2023/10/16 09:34:57;;;;;;;39.37;36.67;;;10.30;88.50;;;;;;5040089;28;20196;-92
2023/10/16 09:37:34;;;;;;;40.03;37.13;;;10.30;88.20;;;;;;5046115;28;20191;-92
2023/10/16 09:40:19;;;;;;;25.30;23.27;;;10.20;87.20;;;;;;5038068;28;20252;-92
2023/10/16 09:42:56;;;;;;;24.13;22.23;;;10.30;87.50;;;;;;5037125;28;20189;-91
2023/10/16 09:45:25;;;;;;;33.87;31.50;;;10.40;86.80;;;;;;5035822;28;20626;-92
2023/10/16 09:47:57;;;;;;;36.67;33.87;;;10.50;87.00;;;;;;5038802;28;20169;-92
2023/10/16 09:50:24;;;;;;;27.33;25.50;;;10.40;86.90;;;;;;5035861;28;20267;-92
2023/10/16 09:52:49;;;;;;;22.20;20.50;;;10.20;86.60;;;;;;5035693;28;20177;-91
2023/10/16 09:55:19;;;;;;;23.10;20.93;;;10.40;87.50;;;;;;5036665;28;20207;-90
2023/10/16 09:57:52;;;;;;;33.67;31.30;;;10.30;87.40;;;;;;5037529;28;20267;-90
2023/10/16 10:02:51;;;;;;;20.40;19.00;;;10.50;88.00;;;;;;5037972;28;20193;-92
2023/10/16 10:05:31;;;;;;;20.50;18.80;;;10.40;87.80;;;;;;5035951;28;20200;-92
2023/10/16 10:07:59;;;;;;;20.77;19.10;;;10.30;86.70;;;;;;5036864;28;20160;-92
2023/10/16 10:13:08;;;;;;;35.87;33.33;;;10.30;86.80;;;;;;5037693;28;20180;-91
2023/10/16 10:15:38;;;;;;;21.80;20.10;;;10.30;86.90;;;;;;5036528;28;20200;-92
2023/10/16 10:20:58;;;;;;;37.40;34.90;;;10.20;86.60;;;;;;5037756;28;20198;-92
2023/10/16 10:23:25;;;;;;;36.63;33.93;;;10.10;86.90;;;;;;5035795;28;20224;-92
2023/10/16 10:25:54;;;;;;;38.47;35.60;;;10.10;87.00;;;;;;5036509;28;20258;-93
2023/10/16 10:28:32;;;;;;;24.07;21.97;;;10.10;87.10;;;;;;5037710;28;20675;-91
2023/10/16 10:31:04;;;;;;;24.17;22.23;;;10.10;87.10;;;;;;5043203;28;20188;-93
2023/10/16 10:33:58;;;;;;;36.17;33.47;;;10.00;86.80;;;;;;5041247;28;20628;-92
2023/10/16 10:36:30;;;;;;;33.93;31.37;;;9.80;86.00;;;;;;5043955;28;20173;-92
2023/10/16 10:39:21;;;;;;;37.33;34.40;;;10.00;86.10;;;;;;5042673;28;20656;-91
2023/10/16 10:41:48;;;;;;;21.97;20.37;;;10.00;86.10;;;;;;5037326;28;20210;-92
2023/10/16 10:44:15;;;;;;;23.90;21.77;;;10.20;86.40;;;;;;5036363;28;20169;-92
2023/10/16 10:46:49;;;;;;;33.23;30.90;;;10.40;86.60;;;;;;5036367;28;20176;-92
2023/10/16 10:49:17;;;;;;;33.27;30.87;;;10.50;86.30;;;;;;5036484;28;20164;-92
2023/10/16 10:51:46;;;;;;;20.60;19.00;;;10.40;85.10;;;;;;5038723;28;20169;-92
2023/10/16 10:54:14;;;;;;;21.70;19.90;;;10.40;84.50;;;;;;5046732;28;20228;-93
2023/10/16 10:56:53;;;;;;;22.53;20.50;;;10.40;84.80;;;;;;5036275;28;20249;-91
2023/10/16 10:59:39;;;;;;;23.20;21.10;;;10.40;84.60;;;;;;5037021;28;20596;-92
2023/10/16 11:03:08;;;;;;;22.13;20.20;;;10.40;84.70;;;;;;5036515;28;20201;-92
2023/10/16 11:04:54;;;;;;;22.17;19.93;;;10.30;84.30;;;;;;5033551;28;20201;-92
2023/10/16 11:07:39;;;;;;;21.70;20.00;;;10.30;84.30;;;;;;5036268;28;20198;-92
2023/10/16 11:10:06;;;;;;;22.30;20.30;;;10.30;83.50;;;;;;5036332;28;20192;-92
2023/10/16 11:12:32;;;;;;;22.90;20.90;;;10.30;83.50;;;;;;5038445;28;20215;-92
2023/10/16 11:15:01;;;;;;;23.47;21.07;;;10.30;83.20;;;;;;5049752;28;20196;-93
2023/10/16 11:17:40;;;;;;;23.37;20.83;;;10.30;83.20;;;;;;5040755;28;20184;-93
2023/10/16 11:22:45;;;;;;;22.13;20.37;;;10.40;84.00;;;;;;5053908;28;20192;-92
2023/10/16 11:25:13;;;;;;;22.80;20.90;;;10.60;84.40;;;;;;5045281;28;20201;-92
2023/10/16 11:27:42;;;;;;;22.47;20.47;;;10.70;84.10;;;;;;5042753;28;20189;-92
2023/10/16 11:30:15;;;;;;;22.83;20.77;;;10.80;84.10;;;;;;5046953;28;20211;-93
2023/10/16 11:32:48;;;;;;;22.20;20.50;;;10.80;83.80;;;;;;5036854;28;20172;-93
2023/10/16 11:35:17;;;;;;;22.03;20.33;;;10.60;83.20;;;;;;5039778;28;20184;-93
2023/10/16 11:37:50;;;;;;;21.77;20.17;;;10.80;84.30;;;;;;5036164;28;20181;-91
2023/10/16 11:40:18;;;;;;;22.47;20.20;;;10.50;82.60;;;;;;5036527;28;20169;-92
2023/10/16 11:42:45;;;;;;;21.67;19.70;;;10.40;82.50;;;;;;5037906;28;20195;-90
2023/10/16 11:45:18;;;;;;;31.83;22.40;;;10.40;82.70;;;;;;5037779;28;20276;-89
2023/10/16 11:47:44;;;;;;;38.40;35.50;;;10.50;83.00;;;;;;5033585;28;20168;-89
2023/10/16 11:50:17;;;;;;;43.10;39.63;;;10.40;82.40;;;;;;5033914;28;20177;-91
2023/10/16 11:52:43;;;;;;;36.93;33.70;;;10.40;82.50;;;;;;5035336;28;20153;-91
2023/10/16 11:55:09;;;;;;;36.30;33.33;;;10.40;82.40;;;;;;5036600;28;20204;-90
2023/10/16 11:57:34;;;;;;;37.90;34.23;;;10.50;82.60;;;;;;5035162;28;20550;-92
2023/10/16 12:00:15;;;;;;;37.90;34.20;;;10.50;82.00;;;;;;5036251;28;20259;-90
2023/10/16 12:02:42;;;;;;;38.77;35.53;;;10.40;81.60;;;;;;5035452;28;20192;-91
2023/10/16 12:05:07;;;;;;;37.60;34.77;;;10.60;82.00;;;;;;5033509;28;20192;-91
2023/10/16 12:07:33;;;;;;;36.77;33.43;;;10.60;81.70;;;;;;5033451;28;20169;-92
2023/10/16 12:10:04;;;;;;;36.03;33.10;;;10.50;81.30;;;;;;5034237;28;20184;-91
2023/10/16 12:12:30;;;;;;;41.03;37.03;;;10.90;82.20;;;;;;5033810;28;20549;-91
2023/10/16 12:14:57;;;;;;;38.17;35.20;;;11.10;80.30;;;;;;5034275;28;20195;-91
2023/10/16 12:17:24;;;;;;;37.30;34.80;;;11.20;79.80;;;;;;5033975;28;20168;-91
2023/10/16 12:19:53;;;;;;;43.87;40.67;;;11.40;79.50;;;;;;5032646;28;20234;-91
2023/10/16 12:22:20;;;;;;;41.13;38.10;;;11.60;78.30;;;;;;5032594;28;20197;-91
2023/10/16 12:24:47;;;;;;;25.87;22.97;;;11.70;77.60;;;;;;5032645;28;20216;-91
2023/10/16 12:27:15;;;;;;;25.07;23.10;;;11.70;77.00;;;;;;5033930;28;20626;-91
2023/10/16 12:29:41;;;;;;;40.87;37.70;;;11.80;77.50;;;;;;5032880;28;20177;-91
2023/10/16 12:32:07;;;;;;;42.73;39.63;;;11.80;78.00;;;;;;5033678;28;20695;-90
2023/10/16 12:34:33;;;;;;;36.60;33.80;;;11.80;77.50;;;;;;5033640;28;20267;-92
2023/10/16 12:37:06;;;;;;;24.70;22.40;;;12.00;78.90;;;;;;5034213;28;20179;-91
2023/10/16 12:39:35;;;;;;;25.27;23.00;;;12.10;79.00;;;;;;5032486;28;20223;-92
2023/10/16 12:42:06;;;;;;;41.37;38.27;;;12.10;76.80;;;;;;5033495;28;20215;-91
2023/10/16 12:44:32;;;;;;;45.03;41.37;;;11.70;76.50;;;;;;5033656;28;20196;-91
2023/10/16 12:46:57;;;;;;;41.80;38.93;;;11.60;78.20;;;;;;5032579;28;20173;-91
2023/10/16 12:49:23;;;;;;;25.70;23.23;;;11.40;76.10;;;;;;5032256;28;20165;-91
2023/10/16 12:51:51;;;;;;;27.20;24.40;;;11.40;76.70;;;;;;5032475;28;20172;-91
2023/10/16 12:54:16;;;;;;;26.10;23.50;;;11.30;77.20;;;;;;5032219;28;20183;-90
2023/10/16 12:56:47;;;;;;;24.13;22.23;;;11.40;78.00;;;;;;5032277;28;20183;-91
2023/10/16 12:59:13;;;;;;;25.77;23.87;;;11.40;78.30;;;;;;5033395;28;20214;-91
2023/10/16 13:01:40;;;;;;;25.13;23.17;;;11.40;78.70;;;;;;5032056;28;20180;-91
2023/10/16 13:04:15;;;;;;;24.77;22.67;;;11.50;79.20;;;;;;5033557;28;20714;-92
2023/10/16 13:06:43;;;;;;;22.90;20.87;;;11.30;78.30;;;;;;5033746;28;20601;-91
2023/10/16 13:09:14;;;;;;;24.87;22.70;;;11.20;77.90;;;;;;5033365;28;20663;-91
2023/10/16 13:11:40;;;;;;;26.13;23.57;;;11.20;78.80;;;;;;5033373;28;20157;-91
2023/10/16 13:14:06;;;;;;;24.80;22.67;;;11.30;79.40;;;;;;5031999;28;20280;-90
2023/10/16 13:16:31;;;;;;;38.43;35.53;;;11.30;79.30;;;;;;5032114;28;20212;-91
2023/10/16 13:18:57;;;;;;;41.93;38.60;;;11.30;79.60;;;;;;5032213;28;20187;-91
2023/10/16 13:21:32;;;;;;;51.00;46.23;;;11.30;79.40;;;;;;5033282;28;20358;-90
2023/10/16 13:24:09;;;;;;;45.63;41.83;;;11.30;79.30;;;;;;5031876;28;20679;-90
2023/10/16 13:26:38;;;;;;;24.70;22.60;;;11.20;78.60;;;;;;5032243;28;20172;-90
2023/10/16 13:29:07;;;;;;;63.93;48.00;;;11.10;78.10;;;;;;5031860;28;20187;-91
2023/10/16 13:31:40;;;;;;;41.03;37.90;;;11.20;78.50;;;;;;5032013;28;20187;-91
2023/10/16 13:34:10;;;;;;;39.57;36.67;;;11.00;78.10;;;;;;5033431;28;20165;-88
2023/10/16 13:37:01;;;;;;;38.17;35.37;;;11.10;78.80;;;;;;5031922;28;20264;-91
2023/10/16 13:39:31;;;;;;;23.50;21.60;;;11.20;78.70;;;;;;5032256;28;20179;-90
2023/10/16 13:41:57;;;;;;;23.80;21.77;;;11.40;78.80;;;;;;5031736;28;20212;-90
2023/10/16 13:44:24;;;;;;;35.40;32.90;;;11.60;79.40;;;;;;5031718;28;20279;-90
2023/10/16 13:46:51;;;;;;;39.03;35.93;;;11.70;78.60;;;;;;5031682;28;20177;-90
2023/10/16 13:49:18;;;;;;;34.37;31.87;;;11.60;78.20;;;;;;5032938;28;20251;-91
2023/10/16 13:51:44;;;;;;;21.73;19.60;;;11.70;77.60;;;;;;5031857;28;20177;-88
2023/10/16 13:54:12;;;;;;;22.60;20.47;;;11.90;76.80;;;;;;5031747;28;20172;-89
2023/10/16 13:56:42;;;;;;;34.80;32.33;;;11.90;76.30;;;;;;5031755;28;20657;-89
2023/10/16 13:59:08;;;;;;;35.10;32.30;;;12.10;76.90;;;;;;5031605;28;20598;-90
2023/10/16 14:01:42;;;;;;;34.30;31.80;;;12.20;77.10;;;;;;5032659;28;20172;-89
2023/10/16 14:04:15;;;;;;;32.37;29.90;;;12.00;75.80;;;;;;5032671;28;20248;-89
2023/10/16 14:06:51;;;;;;;33.50;31.00;;;12.10;75.40;;;;;;5033129;28;20163;-89
2023/10/16 14:09:20;;;;;;;36.73;33.87;;;12.20;75.10;;;;;;5032591;28;20675;-89
2023/10/16 14:11:49;;;;;;;33.87;31.03;;;11.90;73.60;;;;;;5032687;28;20179;-89
2023/10/16 14:14:19;;;;;;;35.70;32.87;;;12.00;74.80;;;;;;5036407;28;20177;-89
2023/10/16 14:17:03;;;;;;;23.70;21.60;;;12.10;74.20;;;;;;5036513;28;20628;-89
2023/10/16 14:19:29;;;;;;;23.63;21.83;;;12.00;74.40;;;;;;5034996;28;20191;-89
2023/10/16 14:21:56;;;;;;;34.80;32.17;;;11.90;74.90;;;;;;5034905;28;20659;-89
2023/10/16 14:24:24;;;;;;;34.57;31.83;;;12.10;75.20;;;;;;5034698;28;20220;-90